createdAt,value
2023-04-14T00:02:57.637Z,8.08
2023-04-14T00:08:02.065Z,8.15
2023-04-14T00:13:07.045Z,8.11
2023-04-14T00:18:10.666Z,8.00
2023-04-14T00:23:14.355Z,7.98
2023-04-14T00:28:19.415Z,8.07
2023-04-14T00:33:23.852Z,7.99
2023-04-14T00:38:27.297Z,7.83
2023-04-14T00:43:32.396Z,7.80
2023-04-14T00:48:36.184Z,7.71
2023-04-14T00:53:40.196Z,7.66
2023-04-14T00:58:45.641Z,7.60
2023-04-14T01:03:49.285Z,7.66
2023-04-14T01:08:52.897Z,7.59
2023-04-14T01:14:08.787Z,7.63
2023-04-14T01:19:35.431Z,7.69
2023-04-14T01:24:52.828Z,7.59
2023-04-14T01:30:22.887Z,7.36
2023-04-14T01:35:34.843Z,7.37
2023-04-14T01:40:42.719Z,7.29
2023-04-14T01:45:52.907Z,7.28
2023-04-14T01:50:59.829Z,7.18
2023-04-14T01:56:04.937Z,7.19
2023-04-14T02:01:10.270Z,6.96
2023-04-14T02:06:17.422Z,6.84
2023-04-14T02:11:21.912Z,6.70
2023-04-14T02:16:26.015Z,6.73
2023-04-14T02:21:33.040Z,6.70
2023-04-14T02:26:45.501Z,6.36
2023-04-14T02:32:07.014Z,6.36
2023-04-14T02:37:19.693Z,6.39
2023-04-14T02:42:29.802Z,6.56
2023-04-14T02:47:36.577Z,6.64
2023-04-14T02:52:42.786Z,6.77
2023-04-14T02:57:48.431Z,6.76
2023-04-14T03:02:54.726Z,6.80
2023-04-14T03:08:02.320Z,6.83
2023-04-14T03:13:08.287Z,6.77
2023-04-14T03:18:14.157Z,6.76
2023-04-14T03:23:22.038Z,6.71
2023-04-14T03:28:37.165Z,6.70
2023-04-14T03:33:46.746Z,6.68
2023-04-14T03:38:58.053Z,6.57
2023-04-14T03:44:05.811Z,6.64
2023-04-14T03:49:11.567Z,6.73
2023-04-14T03:54:18.482Z,6.79
2023-04-14T03:59:25.533Z,7.17
2023-04-14T04:04:30.775Z,7.45
2023-04-14T04:09:38.148Z,7.80
2023-04-14T04:14:42.460Z,8.08
2023-04-14T04:19:49.687Z,8.37
2023-04-14T04:24:57.522Z,8.67
2023-04-14T04:30:09.604Z,8.92
2023-04-14T04:35:15.572Z,9.17
2023-04-14T04:40:22.971Z,9.41
2023-04-14T04:45:50.741Z,9.73
2023-04-14T04:50:54.229Z,10.00
2023-04-14T04:55:59.079Z,10.16
2023-04-14T05:01:09.290Z,10.37
2023-04-14T05:06:12.916Z,10.69
2023-04-14T05:11:17.731Z,10.98
2023-04-14T05:16:21.336Z,11.28
2023-04-14T05:21:25.236Z,11.55
2023-04-14T05:26:51.817Z,11.92
2023-04-14T05:31:53.385Z,12.06
2023-04-14T05:36:56.814Z,12.17
2023-04-14T05:42:01.701Z,12.40
2023-04-14T05:47:05.273Z,12.52
2023-04-14T05:52:08.762Z,12.78
2023-04-14T05:57:13.485Z,12.91
2023-04-14T06:02:17.015Z,13.10
2023-04-14T06:07:20.416Z,13.53
2023-04-14T06:12:25.367Z,13.82
2023-04-14T06:17:29.346Z,14.13
2023-04-14T06:22:33.126Z,14.34
2023-04-14T06:27:38.298Z,14.44
2023-04-14T06:32:42.030Z,14.44
2023-04-14T06:37:45.448Z,14.57
2023-04-14T06:42:50.327Z,14.81
2023-04-14T06:47:54.105Z,14.69
2023-04-14T06:52:57.707Z,15.00
2023-04-14T06:58:02.918Z,15.62
2023-04-14T07:03:06.624Z,16.13
2023-04-14T07:08:10.158Z,16.12
2023-04-14T07:13:15.680Z,16.75
2023-04-14T07:18:19.068Z,17.10
2023-04-14T07:23:22.753Z,17.33
2023-04-14T07:28:29.308Z,17.59
2023-04-14T07:33:32.722Z,17.44
2023-04-14T07:38:36.500Z,18.24
2023-04-14T07:43:41.295Z,18.34
2023-04-14T07:48:44.831Z,18.88
2023-04-14T07:53:48.420Z,18.82
2023-04-14T07:58:53.341Z,19.18
2023-04-14T08:03:57.117Z,19.26
2023-04-14T08:09:01.672Z,19.40
2023-04-14T08:14:06.692Z,19.54
2023-04-14T08:19:10.109Z,19.37
2023-04-14T08:24:13.771Z,19.40
2023-04-14T08:29:18.579Z,19.62
2023-04-14T08:34:28.686Z,19.88
2023-04-14T08:39:32.273Z,19.89
2023-04-14T08:44:37.435Z,19.82
2023-04-14T08:49:43.163Z,19.93
2023-04-14T08:54:51.620Z,19.88
2023-04-14T08:59:58.118Z,20.08
2023-04-14T09:05:02.271Z,20.69
2023-04-14T09:10:07.935Z,21.18
2023-04-14T09:15:14.556Z,20.96
2023-04-14T09:20:38.656Z,21.11
2023-04-14T09:25:42.682Z,20.36
2023-04-14T09:30:47.825Z,20.13
2023-04-14T09:35:52.517Z,19.93
2023-04-14T09:40:57.014Z,19.84
2023-04-14T09:46:07.686Z,20.59
2023-04-14T09:51:11.788Z,21.01
2023-04-14T09:56:16.067Z,21.55
2023-04-14T10:01:22.076Z,21.28
2023-04-14T10:06:26.942Z,21.41
2023-04-14T10:11:33.004Z,21.63
2023-04-14T10:16:41.348Z,21.41
2023-04-14T10:21:46.770Z,21.22
2023-04-14T10:26:50.601Z,21.37
2023-04-14T10:32:00.056Z,21.63
2023-04-14T10:37:16.489Z,21.34
2023-04-14T10:42:19.922Z,20.45
2023-04-14T10:47:26.132Z,20.92
2023-04-14T10:52:35.393Z,21.26
2023-04-14T10:57:43.385Z,21.13
2023-04-14T11:02:57.448Z,21.21
2023-04-14T11:08:03.183Z,21.01
2023-04-14T11:13:09.214Z,20.90
2023-04-14T11:18:15.937Z,21.04
2023-04-14T11:23:19.508Z,21.65
2023-04-14T11:28:29.525Z,21.28
2023-04-14T11:33:35.941Z,21.21
2023-04-14T11:38:40.943Z,22.26
2023-04-14T11:43:47.062Z,22.54
2023-04-14T11:48:57.940Z,22.46
2023-04-14T11:54:02.220Z,22.76
2023-04-14T11:59:07.211Z,21.87
2023-04-14T12:04:12.460Z,21.74
2023-04-14T12:09:16.422Z,21.77
2023-04-14T12:14:20.918Z,22.14
2023-04-14T12:19:26.091Z,22.93
2023-04-14T12:24:35.730Z,22.39
2023-04-14T12:29:40.103Z,21.54
2023-04-14T12:34:55.492Z,21.34
2023-04-14T12:40:00.981Z,21.15
2023-04-14T12:45:05.759Z,20.86
2023-04-14T12:50:29.289Z,20.81
2023-04-14T12:55:33.280Z,20.80
2023-04-14T13:00:36.871Z,20.81
2023-04-14T13:05:41.743Z,20.74
2023-04-14T13:10:45.599Z,20.88
2023-04-14T13:16:13.638Z,20.88
2023-04-14T13:21:14.359Z,20.67
2023-04-14T13:26:17.762Z,20.25
2023-04-14T13:31:21.591Z,20.58
2023-04-14T13:36:27.707Z,21.06
2023-04-14T13:41:31.381Z,20.97
2023-04-14T13:46:40.864Z,21.45
2023-04-14T13:51:46.574Z,21.33
2023-04-14T13:56:50.364Z,21.51
2023-04-14T14:01:54.112Z,21.15
2023-04-14T14:06:59.280Z,21.15
2023-04-14T14:12:03.389Z,20.98
2023-04-14T14:17:06.960Z,21.05
2023-04-14T14:22:12.084Z,20.99
2023-04-14T14:27:16.301Z,20.84
2023-04-14T14:32:19.828Z,20.60
2023-04-14T14:37:24.901Z,20.48
2023-04-14T14:42:28.685Z,20.45
2023-04-14T14:47:32.158Z,20.52
2023-04-14T14:52:37.705Z,20.41
2023-04-14T14:57:41.136Z,20.34
2023-04-14T15:02:44.997Z,20.32
2023-04-14T15:07:51.022Z,20.31
2023-04-14T15:12:55.136Z,20.28
2023-04-14T15:17:59.319Z,20.11
2023-04-14T15:23:04.428Z,20.09
2023-04-14T15:28:08.304Z,19.94
2023-04-14T15:33:11.748Z,19.98
2023-04-14T15:38:16.856Z,19.84
2023-04-14T15:43:20.223Z,19.89
2023-04-14T15:48:23.607Z,19.81
2023-04-14T15:53:28.370Z,19.67
2023-04-14T15:58:32.011Z,19.68
2023-04-14T16:03:35.980Z,19.48
2023-04-14T16:08:41.078Z,19.34
2023-04-14T16:13:45.766Z,19.18
2023-04-14T16:18:49.261Z,19.06
2023-04-14T16:23:54.115Z,18.90
2023-04-14T16:28:57.517Z,18.84
2023-04-14T16:34:01.176Z,18.79
2023-04-14T16:39:06.479Z,18.68
2023-04-14T16:44:09.934Z,18.59
2023-04-14T16:49:14.772Z,18.39
2023-04-14T16:54:19.906Z,18.28
2023-04-14T16:59:23.298Z,18.13
2023-04-14T17:04:27.222Z,18.00
2023-04-14T17:09:32.287Z,17.95
2023-04-14T17:14:36.197Z,17.96
2023-04-14T17:19:40.804Z,17.77
2023-04-14T17:24:47.631Z,17.56
2023-04-14T17:29:51.307Z,17.47
2023-04-14T17:34:54.885Z,17.47
2023-04-14T17:40:00.150Z,17.28
2023-04-14T17:45:04.224Z,17.23
2023-04-14T17:50:09.419Z,17.03
2023-04-14T17:55:14.874Z,17.05
2023-04-14T18:00:20.124Z,16.95
2023-04-14T18:05:23.728Z,16.80
2023-04-14T18:10:29.254Z,16.94
2023-04-14T18:15:32.876Z,16.67
2023-04-14T18:20:36.469Z,16.53
2023-04-14T18:30:54.659Z,16.32
2023-04-14T18:36:00.507Z,16.32
2023-04-14T18:41:06.939Z,16.31
2023-04-14T18:46:10.448Z,16.31
2023-04-14T18:51:13.868Z,16.31
2023-04-14T18:56:18.755Z,16.23
2023-04-14T19:01:22.866Z,16.25
2023-04-14T19:06:26.531Z,16.21
2023-04-14T19:11:32.391Z,16.09
2023-04-14T19:16:36.085Z,16.07
2023-04-14T19:21:40.850Z,16.12
2023-04-14T19:26:46.238Z,16.19
2023-04-14T19:31:50.395Z,16.19
2023-04-14T19:36:53.898Z,16.20
2023-04-14T19:41:58.923Z,15.88
2023-04-14T19:47:02.468Z,15.70
2023-04-14T19:52:06.024Z,15.55
2023-04-14T19:57:11.332Z,15.38
2023-04-14T20:02:15.178Z,15.25
2023-04-14T20:07:18.642Z,15.13
2023-04-14T20:12:23.900Z,14.93
2023-04-14T20:17:27.882Z,14.64
2023-04-14T20:22:33.613Z,14.33
2023-04-14T20:27:38.922Z,14.16
2023-04-14T20:32:42.737Z,14.10
2023-04-14T20:37:46.367Z,14.06
2023-04-14T20:42:51.526Z,14.08
2023-04-14T20:47:55.594Z,14.08
2023-04-14T20:52:59.894Z,13.97
2023-04-14T20:58:04.738Z,13.74
2023-04-14T21:03:09.875Z,13.67
2023-04-14T21:08:13.725Z,13.61
2023-04-14T21:15:15.971Z,13.52
2023-04-14T21:18:42.132Z,13.46
2023-04-14T21:23:45.740Z,13.36
2023-04-14T21:28:50.892Z,13.38
2023-04-14T21:33:55.586Z,13.36
2023-04-14T21:38:58.998Z,13.31
2023-04-14T21:44:04.161Z,13.32
2023-04-14T21:49:08.161Z,13.26
2023-04-14T21:54:12.107Z,13.08
2023-04-14T21:59:17.207Z,13.01
2023-04-14T22:04:33.082Z,12.92
2023-04-14T22:09:40.869Z,12.87
2023-04-14T22:14:46.889Z,12.58
2023-04-14T22:19:50.418Z,12.49
2023-04-14T22:24:56.514Z,12.58
2023-04-14T22:30:02.021Z,12.71
2023-04-14T22:35:07.295Z,12.67
2023-04-14T22:40:11.248Z,12.47
2023-04-14T22:45:17.412Z,12.34
2023-04-14T22:50:21.027Z,12.34
2023-04-14T22:55:24.444Z,12.37
2023-04-14T23:00:29.616Z,12.45
2023-04-14T23:05:33.377Z,12.35
2023-04-14T23:10:37.533Z,12.16
2023-04-14T23:15:42.661Z,11.83
2023-04-14T23:20:46.273Z,11.62
2023-04-14T23:25:49.886Z,11.59
2023-04-14T23:30:55.073Z,11.54
2023-04-14T23:35:58.736Z,11.50
2023-04-14T23:41:02.288Z,10.98
2023-04-14T23:46:07.261Z,11.14
2023-04-14T23:51:19.214Z,11.32
2023-04-14T23:56:25.721Z,11.27
